x

North Hecate Strait (46183) Wave Buoy

5:00pm - Mon 24th Nov 2014 All times are PST. -8 hours from GMT.

  • Sig Wave height 5.2ft
  • Peak Period 10s
  • Wind
    7mph, 9mph gusts
  • Sea Temp 50°f
  • Air Temp 48°f
  • Sea Pressure 1016.6mb
  • North Hecate Strait
  • North Hecate Strait

More Historic Weather Station data

Upgrade to MSW Pro to gain access to the past 30 days of data for over 8000 Wavebouys and Weather Stations around the globe.

Join Pro

Comparision Forecast

View Surf forecast
   
Mon 11/24 5:00pm 5ft 10s 7 9 mph 1016.6mb 50f 48f
4:00pm 5ft 10s 9 11 mph 1016mb 50f 48f
3:00pm 5ft 9s 13 18 mph 1015.3mb 51f 49f
2:00pm 5.5ft 9s 9 11 mph 1014.9mb 51f 49f
1:00pm 7ft 8s 11 13 mph 1014.1mb 51f 49f
12:00pm 6.5ft 8s 13 16 mph 1013.7mb 51f 49f
11:00am 5ft 7s 13
mph
1013.2mb 50f 49f
10:00am 6ft 8s 13 16 mph 1012.4mb 51f 48f
9:00am 7ft 9s 13 18 mph 1011.5mb 51f 48f
8:00am 7ft 8s 13 20 mph 1010.6mb 51f 49f
7:00am 7.5ft 8s 13 18 mph 1009.9mb 51f 49f
6:00am 8ft 8s 13 16 mph 1008.9mb 51f 50f
5:00am  -   -  20
mph
1008.2mb - 50f
4:00am 11ft 8s 29 40 mph 1007.3mb 51f 49f
3:00am 10.5ft 7s 34 43 mph 1007.9mb 51f 50f
2:00am 9ft 6s 34 40 mph 1008.6mb 51f 49f
1:00am 7.5ft 6s 34 43 mph 1009.4mb 51f 49f
12:00am 7ft 6s 31 40 mph 1010.8mb 51f 48f
Sun 11/23 11:00pm 5.5ft 5s 29 36 mph 1012.3mb 51f 48f
10:00pm 4.5ft 4s 27 34 mph 1013.4mb 51f 49f
9:00pm 4ft 4s 22 27 mph 1013.9mb 51f 50f
8:00pm 3.5ft 8s 18 22 mph 1014.5mb 51f 50f
7:00pm 3.5ft 8s 18 22 mph 1015mb 51f 50f
6:00pm 3.5ft 8s 16 18 mph 1015.3mb 51f 50f
5:00pm 3.5ft 8s 13 18 mph 1015.4mb 51f 50f
4:00pm 3.5ft 10s 16 18 mph 1014.9mb 51f 49f
3:00pm 3.5ft 10s 13 16 mph 1014.2mb 51f 49f
2:00pm 3.5ft 9s 13 16 mph 1013.6mb 51f 50f
1:00pm 3.5ft 9s 13 16 mph 1013mb 51f 49f
12:00pm 3.5ft 8s 16 20 mph 1012.5mb 51f 49f
11:00am 3.5ft 8s 11 16 mph 1011.5mb 51f 49f
10:00am 4ft 8s 16 18 mph 1010.4mb 51f 48f
9:00am 3.5ft 8s 16 18 mph 1009mb 51f 47f
8:00am 3.5ft 10s 13 18 mph 1007.7mb 51f 46f
7:00am 4ft 4s 18 20 mph 1006.4mb 51f 45f
6:00am 5ft 6s 20 25 mph 1004.9mb 51f 44f
5:00am 6ft 5s 20 25 mph 1002.5mb 51f 45f
4:00am 5ft 7s 29 36 mph 1000mb 51f 45f
3:00am 5.5ft 6s 13 20 mph 999mb 51f 44f
2:00am 7ft 7s 20 25 mph 998mb 51f 44f
12:00am 6.5ft 5s 27 31 mph 997.1mb 51f 47f
Sat 11/22 11:00pm 5.5ft 5s 27 31 mph 997.5mb 51f 46f
10:00pm 4.5ft 5s 22 31 mph 998.5mb 51f 48f
9:00pm 4.5ft 5s 22 27 mph 999.5mb 51f 49f
8:00pm 4.5ft 5s 18 22 mph 1000.6mb 51f 49f
7:00pm 4ft 5s 20 25 mph 1001.3mb 51f 50f
6:00pm 4ft 9s 18 22 mph 1001.6mb 51f 50f
4:00pm 3.5ft 9s 20 25 mph 1001.8mb 51f 49f
3:00pm 3.5ft 9s 18 20 mph 1001.5mb 51f 50f
2:00pm 4ft 9s 18 20 mph 1001.5mb 51f 49f
1:00pm 4.5ft 8s 16 20 mph 1001.3mb 51f 50f
12:00pm 4.5ft 9s 16 20 mph 1000.9mb 51f 49f
11:00am 4.5ft 8s 18 20 mph 1000.4mb 51f 49f
10:00am 4.5ft 8s 20 22 mph 999.8mb 51f 49f
9:00am 4ft 8s 18 22 mph 999.1mb 51f 49f
8:00am 3.5ft 9s 16 20 mph 998.9mb 51f 49f
7:00am 3.5ft 10s 13 18 mph 998.4mb 51f 49f
6:00am 3.5ft 10s 13 16 mph 997.7mb 51f 49f
5:00am 3.5ft 8s 11 13 mph 997.4mb 51f 48f
4:00am 3.5ft 9s 11 13 mph 996.9mb 51f 48f
3:00am 3.5ft 9s 13 16 mph 996.3mb 51f 48f
2:00am 4ft 8s 13 16 mph 995.6mb 51f 48f
1:00am 4.5ft 8s 13 16 mph 994.9mb 51f 48f
12:00am 4.5ft 14s 11 13 mph 994.3mb 51f 48f
Fri 11/21 11:00pm 4.5ft 9s 11 13 mph 993.5mb 51f 48f
10:00pm 5.5ft 8s 13
mph
993.1mb 51f 48f
9:00pm 5ft 9s 11 13 mph 992.6mb 51f 48f
8:00pm 6.5ft 10s 11 16 mph 992.3mb 51f 48f
7:00pm 7ft 10s 11 13 mph 992mb 51f 48f
6:00pm 7ft 10s 9 11 mph 991.7mb 51f 48f
5:00pm 6.5ft 10s 9 13 mph 991.5mb 51f 48f
4:00pm 7ft 11s 9 13 mph 991.1mb 51f 48f
3:00pm 7.5ft 10s 9 13 mph 990.8mb 51f 48f
2:00pm 8ft 11s 7 9 mph 990.7mb 51f 49f
1:00pm 8ft 11s 7 11 mph 990.7mb 51f 49f
12:00pm 9.5ft 10s 9 13 mph 990.7mb 51f 49f
11:00am 12ft 10s 16 20 mph 990.3mb 51f 48f
10:00am 12ft 9s 13 18 mph 990.3mb 51f 48f
9:00am 13ft 9s 16 22 mph 989.7mb 51f 48f
8:00am 13ft 10s 18 25 mph 988.7mb 51f 47f
6:00am 15.5ft 9s 38 49 mph 989mb 51f 50f
5:00am 15ft 8s 34 40 mph 990.4mb 51f 49f
4:00am 13.5ft 9s 34 43 mph 991.6mb 51f 50f
3:00am 12ft 8s 36 45 mph 992.5mb 51f 50f